sensor_id;sensor_type;location;lat;lon;timestamp;P1;durP1;ratioP1;P2;durP2;ratioP2
70367;SDS011;57789;53.868;10.728;2023-04-01T00:00:16;10.97;;;7.87;;
70367;SDS011;57789;53.868;10.728;2023-04-01T00:02:42;14.23;;;8.60;;
70367;SDS011;57789;53.868;10.728;2023-04-01T00:05:08;12.40;;;8.27;;
70367;SDS011;57789;53.868;10.728;2023-04-01T00:07:35;8.70;;;7.80;;
70367;SDS011;57789;53.868;10.728;2023-04-01T00:10:02;17.67;;;12.90;;
70367;SDS011;57789;53.868;10.728;2023-04-01T00:12:31;44.83;;;28.47;;
70367;SDS011;57789;53.868;10.728;2023-04-01T00:14:57;19.70;;;12.60;;
70367;SDS011;57789;53.868;10.728;2023-04-01T00:17:23;14.40;;;10.60;;
70367;SDS011;57789;53.868;10.728;2023-04-01T00:19:48;41.07;;;24.97;;
70367;SDS011;57789;53.868;10.728;2023-04-01T00:22:14;16.90;;;11.87;;
70367;SDS011;57789;53.868;10.728;2023-04-01T00:24:40;12.13;;;8.17;;
70367;SDS011;57789;53.868;10.728;2023-04-01T00:27:06;15.93;;;10.17;;
70367;SDS011;57789;53.868;10.728;2023-04-01T00:29:33;21.10;;;15.60;;
70367;SDS011;57789;53.868;10.728;2023-04-01T00:31:59;11.87;;;8.50;;
70367;SDS011;57789;53.868;10.728;2023-04-01T00:34:25;14.20;;;9.73;;
70367;SDS011;57789;53.868;10.728;2023-04-01T00:36:52;15.37;;;10.40;;
70367;SDS011;57789;53.868;10.728;2023-04-01T00:39:20;9.67;;;8.20;;
70367;SDS011;57789;53.868;10.728;2023-04-01T00:41:46;65.10;;;38.53;;
70367;SDS011;57789;53.868;10.728;2023-04-01T00:44:20;18.33;;;12.97;;
70367;SDS011;57789;53.868;10.728;2023-04-01T00:46:47;13.40;;;10.73;;
70367;SDS011;57789;53.868;10.728;2023-04-01T00:49:13;14.37;;;9.60;;
70367;SDS011;57789;53.868;10.728;2023-04-01T00:51:42;15.73;;;11.53;;
70367;SDS011;57789;53.868;10.728;2023-04-01T00:54:10;17.20;;;12.40;;
70367;SDS011;57789;53.868;10.728;2023-04-01T00:56:38;15.60;;;11.07;;
70367;SDS011;57789;53.868;10.728;2023-04-01T00:59:11;12.33;;;10.03;;
70367;SDS011;57789;53.868;10.728;2023-04-01T01:01:41;24.00;;;15.13;;
70367;SDS011;57789;53.868;10.728;2023-04-01T01:04:06;11.90;;;10.10;;
70367;SDS011;57789;53.868;10.728;2023-04-01T01:12:44;11.50;;;9.57;;
70367;SDS011;57789;53.868;10.728;2023-04-01T01:15:21;12.53;;;9.07;;
70367;SDS011;57789;53.868;10.728;2023-04-01T01:34:22;15.33;;;10.40;;
70367;SDS011;57789;53.868;10.728;2023-04-01T01:37:14;16.67;;;10.53;;
70367;SDS011;57789;53.868;10.728;2023-04-01T01:39:41;13.20;;;9.90;;
70367;SDS011;57789;53.868;10.728;2023-04-01T01:42:11;15.40;;;10.63;;
70367;SDS011;57789;53.868;10.728;2023-04-01T01:44:40;16.87;;;10.43;;
70367;SDS011;57789;53.868;10.728;2023-04-01T01:47:09;13.20;;;10.53;;
70367;SDS011;57789;53.868;10.728;2023-04-01T01:49:35;17.50;;;12.73;;
70367;SDS011;57789;53.868;10.728;2023-04-01T01:52:06;14.63;;;12.23;;
70367;SDS011;57789;53.868;10.728;2023-04-01T01:54:32;15.20;;;11.40;;
70367;SDS011;57789;53.868;10.728;2023-04-01T01:57:03;16.13;;;9.87;;
70367;SDS011;57789;53.868;10.728;2023-04-01T01:59:32;13.70;;;10.50;;
70367;SDS011;57789;53.868;10.728;2023-04-01T02:02:04;11.63;;;8.20;;
70367;SDS011;57789;53.868;10.728;2023-04-01T02:04:36;19.30;;;8.60;;
70367;SDS011;57789;53.868;10.728;2023-04-01T02:07:07;13.63;;;7.90;;
70367;SDS011;57789;53.868;10.728;2023-04-01T02:09:37;10.40;;;6.90;;
70367;SDS011;57789;53.868;10.728;2023-04-01T02:12:04;11.07;;;6.73;;
70367;SDS011;57789;53.868;10.728;2023-04-01T02:17:08;12.50;;;6.10;;
70367;SDS011;57789;53.868;10.728;2023-04-01T02:19:47;10.53;;;5.83;;
70367;SDS011;57789;53.868;10.728;2023-04-01T02:22:29;9.63;;;5.33;;
70367;SDS011;57789;53.868;10.728;2023-04-01T02:25:16;11.00;;;4.80;;
70367;SDS011;57789;53.868;10.728;2023-04-01T02:27:45;7.13;;;5.93;;
70367;SDS011;57789;53.868;10.728;2023-04-01T02:30:12;6.47;;;4.87;;
70367;SDS011;57789;53.868;10.728;2023-04-01T02:32:40;7.27;;;5.47;;
70367;SDS011;57789;53.868;10.728;2023-04-01T02:35:09;8.60;;;4.60;;
70367;SDS011;57789;53.868;10.728;2023-04-01T02:37:37;5.37;;;4.07;;
70367;SDS011;57789;53.868;10.728;2023-04-01T02:40:07;11.07;;;4.13;;
70367;SDS011;57789;53.868;10.728;2023-04-01T02:42:34;4.60;;;3.40;;
70367;SDS011;57789;53.868;10.728;2023-04-01T02:45:00;4.73;;;3.60;;
70367;SDS011;57789;53.868;10.728;2023-04-01T02:47:26;5.47;;;3.47;;
70367;SDS011;57789;53.868;10.728;2023-04-01T02:49:51;3.93;;;3.47;;
70367;SDS011;57789;53.868;10.728;2023-04-01T02:52:23;3.80;;;3.23;;
70367;SDS011;57789;53.868;10.728;2023-04-01T02:54:51;2.50;;;2.30;;
70367;SDS011;57789;53.868;10.728;2023-04-01T02:57:17;6.57;;;2.70;;
70367;SDS011;57789;53.868;10.728;2023-04-01T02:59:43;4.77;;;3.10;;
70367;SDS011;57789;53.868;10.728;2023-04-01T03:02:09;4.97;;;3.90;;
70367;SDS011;57789;53.868;10.728;2023-04-01T03:04:35;4.73;;;3.70;;
70367;SDS011;57789;53.868;10.728;2023-04-01T03:07:00;5.77;;;3.40;;
70367;SDS011;57789;53.868;10.728;2023-04-01T03:09:26;4.60;;;3.90;;
70367;SDS011;57789;53.868;10.728;2023-04-01T03:11:53;5.70;;;4.20;;
70367;SDS011;57789;53.868;10.728;2023-04-01T03:14:19;6.10;;;3.60;;
70367;SDS011;57789;53.868;10.728;2023-04-01T03:16:45;4.93;;;3.60;;
70367;SDS011;57789;53.868;10.728;2023-04-01T03:19:11;4.60;;;3.63;;
70367;SDS011;57789;53.868;10.728;2023-04-01T03:21:36;4.80;;;3.90;;
70367;SDS011;57789;53.868;10.728;2023-04-01T03:24:02;4.67;;;3.73;;
70367;SDS011;57789;53.868;10.728;2023-04-01T03:26:28;2.90;;;2.60;;
70367;SDS011;57789;53.868;10.728;2023-04-01T03:28:54;3.40;;;3.10;;
70367;SDS011;57789;53.868;10.728;2023-04-01T03:31:20;3.40;;;3.03;;
70367;SDS011;57789;53.868;10.728;2023-04-01T03:33:46;3.37;;;2.70;;
70367;SDS011;57789;53.868;10.728;2023-04-01T03:36:12;4.50;;;3.13;;
70367;SDS011;57789;53.868;10.728;2023-04-01T03:38:39;4.30;;;3.40;;
70367;SDS011;57789;53.868;10.728;2023-04-01T03:41:06;3.17;;;2.60;;
70367;SDS011;57789;53.868;10.728;2023-04-01T03:43:32;3.00;;;2.43;;
70367;SDS011;57789;53.868;10.728;2023-04-01T03:45:58;4.50;;;2.40;;
70367;SDS011;57789;53.868;10.728;2023-04-01T03:48:23;2.10;;;1.60;;
70367;SDS011;57789;53.868;10.728;2023-04-01T03:50:50;3.53;;;2.27;;
70367;SDS011;57789;53.868;10.728;2023-04-01T03:53:16;5.90;;;2.57;;
70367;SDS011;57789;53.868;10.728;2023-04-01T03:55:42;2.53;;;1.63;;
70367;SDS011;57789;53.868;10.728;2023-04-01T03:58:08;2.30;;;2.07;;
70367;SDS011;57789;53.868;10.728;2023-04-01T04:00:34;1.50;;;1.40;;
70367;SDS011;57789;53.868;10.728;2023-04-01T04:03:00;2.33;;;1.93;;
70367;SDS011;57789;53.868;10.728;2023-04-01T04:05:27;4.73;;;1.70;;
70367;SDS011;57789;53.868;10.728;2023-04-01T04:07:53;2.20;;;1.30;;
70367;SDS011;57789;53.868;10.728;2023-04-01T04:10:19;2.03;;;1.20;;
70367;SDS011;57789;53.868;10.728;2023-04-01T04:12:45;1.93;;;1.43;;
70367;SDS011;57789;53.868;10.728;2023-04-01T04:15:11;1.27;;;1.17;;
70367;SDS011;57789;53.868;10.728;2023-04-01T04:17:37;2.03;;;1.00;;
70367;SDS011;57789;53.868;10.728;2023-04-01T04:20:03;1.40;;;1.27;;
70367;SDS011;57789;53.868;10.728;2023-04-01T04:22:29;2.40;;;1.77;;
70367;SDS011;57789;53.868;10.728;2023-04-01T04:24:55;2.07;;;1.17;;
70367;SDS011;57789;53.868;10.728;2023-04-01T04:27:20;1.63;;;1.53;;
70367;SDS011;57789;53.868;10.728;2023-04-01T04:29:46;1.80;;;1.70;;
70367;SDS011;57789;53.868;10.728;2023-04-01T04:32:12;1.33;;;1.23;;
70367;SDS011;57789;53.868;10.728;2023-04-01T04:34:37;1.70;;;1.50;;
70367;SDS011;57789;53.868;10.728;2023-04-01T04:37:03;2.13;;;1.43;;
70367;SDS011;57789;53.868;10.728;2023-04-01T04:39:29;2.20;;;1.57;;
70367;SDS011;57789;53.868;10.728;2023-04-01T04:41:55;4.57;;;1.70;;
70367;SDS011;57789;53.868;10.728;2023-04-01T04:44:20;2.27;;;2.07;;
70367;SDS011;57789;53.868;10.728;2023-04-01T04:46:46;3.67;;;2.27;;
70367;SDS011;57789;53.868;10.728;2023-04-01T04:49:12;2.03;;;1.73;;
70367;SDS011;57789;53.868;10.728;2023-04-01T04:51:38;3.43;;;1.80;;
70367;SDS011;57789;53.868;10.728;2023-04-01T04:54:03;1.17;;;1.07;;
70367;SDS011;57789;53.868;10.728;2023-04-01T04:56:30;1.63;;;1.53;;
70367;SDS011;57789;53.868;10.728;2023-04-01T04:58:56;1.33;;;1.03;;
70367;SDS011;57789;53.868;10.728;2023-04-01T05:01:22;1.40;;;1.30;;
70367;SDS011;57789;53.868;10.728;2023-04-01T05:03:48;2.17;;;1.13;;
70367;SDS011;57789;53.868;10.728;2023-04-01T05:06:14;4.20;;;1.57;;
70367;SDS011;57789;53.868;10.728;2023-04-01T05:08:41;3.70;;;1.80;;
70367;SDS011;57789;53.868;10.728;2023-04-01T05:11:18;1.63;;;1.27;;
70367;SDS011;57789;53.868;10.728;2023-04-01T05:13:45;2.37;;;1.27;;
70367;SDS011;57789;53.868;10.728;2023-04-01T05:16:12;1.73;;;1.43;;
70367;SDS011;57789;53.868;10.728;2023-04-01T05:18:40;2.33;;;1.40;;
70367;SDS011;57789;53.868;10.728;2023-04-01T05:21:06;4.40;;;1.50;;
70367;SDS011;57789;53.868;10.728;2023-04-01T05:23:33;2.07;;;1.40;;
70367;SDS011;57789;53.868;10.728;2023-04-01T05:26:03;2.03;;;1.70;;
70367;SDS011;57789;53.868;10.728;2023-04-01T05:28:30;2.00;;;1.53;;
70367;SDS011;57789;53.868;10.728;2023-04-01T05:30:57;1.73;;;1.40;;
70367;SDS011;57789;53.868;10.728;2023-04-01T05:33:25;2.27;;;1.73;;
70367;SDS011;57789;53.868;10.728;2023-04-01T05:35:51;3.00;;;2.00;;
70367;SDS011;57789;53.868;10.728;2023-04-01T05:38:17;4.30;;;2.10;;
70367;SDS011;57789;53.868;10.728;2023-04-01T05:40:42;3.90;;;2.17;;
70367;SDS011;57789;53.868;10.728;2023-04-01T05:43:08;4.10;;;2.40;;
70367;SDS011;57789;53.868;10.728;2023-04-01T05:45:34;2.80;;;2.00;;
70367;SDS011;57789;53.868;10.728;2023-04-01T05:47:59;4.17;;;2.67;;
70367;SDS011;57789;53.868;10.728;2023-04-01T05:50:26;3.70;;;2.60;;
70367;SDS011;57789;53.868;10.728;2023-04-01T05:52:52;2.90;;;2.50;;
70367;SDS011;57789;53.868;10.728;2023-04-01T05:55:18;2.20;;;1.90;;
70367;SDS011;57789;53.868;10.728;2023-04-01T05:57:44;3.83;;;2.33;;
70367;SDS011;57789;53.868;10.728;2023-04-01T06:00:11;3.23;;;2.20;;
70367;SDS011;57789;53.868;10.728;2023-04-01T06:02:38;1.90;;;1.50;;
70367;SDS011;57789;53.868;10.728;2023-04-01T06:05:20;2.70;;;1.73;;
70367;SDS011;57789;53.868;10.728;2023-04-01T06:07:48;2.30;;;1.30;;
70367;SDS011;57789;53.868;10.728;2023-04-01T06:10:20;1.90;;;1.57;;
70367;SDS011;57789;53.868;10.728;2023-04-01T06:13:03;3.43;;;2.13;;
70367;SDS011;57789;53.868;10.728;2023-04-01T06:15:40;6.20;;;3.10;;
70367;SDS011;57789;53.868;10.728;2023-04-01T06:32:12;3.57;;;2.20;;
70367;SDS011;57789;53.868;10.728;2023-04-01T06:51:13;1.87;;;1.63;;
70367;SDS011;57789;53.868;10.728;2023-04-01T06:56:40;3.30;;;1.63;;
70367;SDS011;57789;53.868;10.728;2023-04-01T06:59:17;3.37;;;2.03;;
70367;SDS011;57789;53.868;10.728;2023-04-01T07:01:53;2.10;;;1.10;;
70367;SDS011;57789;53.868;10.728;2023-04-01T07:04:29;3.40;;;1.60;;
70367;SDS011;57789;53.868;10.728;2023-04-01T07:09:55;1.80;;;1.43;;
70367;SDS011;57789;53.868;10.728;2023-04-01T07:12:31;2.30;;;1.07;;
70367;SDS011;57789;53.868;10.728;2023-04-01T07:15:05;1.30;;;1.20;;
70367;SDS011;57789;53.868;10.728;2023-04-01T07:17:43;2.70;;;1.30;;
70367;SDS011;57789;53.868;10.728;2023-04-01T07:20:23;1.63;;;0.90;;
70367;SDS011;57789;53.868;10.728;2023-04-01T07:22:52;3.47;;;1.47;;
70367;SDS011;57789;53.868;10.728;2023-04-01T07:25:28;2.93;;;1.10;;
70367;SDS011;57789;53.868;10.728;2023-04-01T07:28:04;2.47;;;1.50;;
70367;SDS011;57789;53.868;10.728;2023-04-01T07:30:40;3.07;;;1.00;;
70367;SDS011;57789;53.868;10.728;2023-04-01T07:36:03;3.57;;;0.90;;
70367;SDS011;57789;53.868;10.728;2023-04-01T07:53:00;3.07;;;1.37;;
70367;SDS011;57789;53.868;10.728;2023-04-01T07:55:32;1.90;;;1.27;;
70367;SDS011;57789;53.868;10.728;2023-04-01T08:09:45;2.30;;;1.00;;
70367;SDS011;57789;53.868;10.728;2023-04-01T08:14:56;3.30;;;1.17;;
70367;SDS011;57789;53.868;10.728;2023-04-01T08:17:33;3.87;;;0.60;;
70367;SDS011;57789;53.868;10.728;2023-04-01T08:22:41;5.13;;;1.10;;
70367;SDS011;57789;53.868;10.728;2023-04-01T08:25:13;1.70;;;0.80;;
70367;SDS011;57789;53.868;10.728;2023-04-01T08:27:53;1.50;;;1.00;;
70367;SDS011;57789;53.868;10.728;2023-04-01T08:30:24;3.23;;;1.30;;
70367;SDS011;57789;53.868;10.728;2023-04-01T08:38:28;4.20;;;2.00;;
70367;SDS011;57789;53.868;10.728;2023-04-01T08:41:04;1.73;;;1.17;;
70367;SDS011;57789;53.868;10.728;2023-04-01T08:43:51;0.80;;;0.77;;
70367;SDS011;57789;53.868;10.728;2023-04-01T08:52:34;2.10;;;0.87;;
70367;SDS011;57789;53.868;10.728;2023-04-01T08:58:04;2.20;;;0.83;;
70367;SDS011;57789;53.868;10.728;2023-04-01T09:00:53;0.90;;;0.80;;
70367;SDS011;57789;53.868;10.728;2023-04-01T09:20:23;2.80;;;1.60;;
70367;SDS011;57789;53.868;10.728;2023-04-01T09:25:38;2.93;;;0.90;;
70367;SDS011;57789;53.868;10.728;2023-04-01T09:31:25;3.00;;;1.20;;
70367;SDS011;57789;53.868;10.728;2023-04-01T09:40:08;1.43;;;1.00;;
70367;SDS011;57789;53.868;10.728;2023-04-01T09:45:32;1.80;;;1.37;;
70367;SDS011;57789;53.868;10.728;2023-04-01T09:48:15;1.17;;;1.00;;
70367;SDS011;57789;53.868;10.728;2023-04-01T09:50:57;2.30;;;1.20;;
70367;SDS011;57789;53.868;10.728;2023-04-01T10:12:39;9.00;;;2.90;;
70367;SDS011;57789;53.868;10.728;2023-04-01T10:15:27;5.17;;;2.30;;
70367;SDS011;57789;53.868;10.728;2023-04-01T10:36:41;4.23;;;3.40;;
70367;SDS011;57789;53.868;10.728;2023-04-01T10:48:04;6.90;;;3.13;;
70367;SDS011;57789;53.868;10.728;2023-04-01T10:56:42;3.53;;;2.80;;
70367;SDS011;57789;53.868;10.728;2023-04-01T11:07:55;10.20;;;4.30;;
70367;SDS011;57789;53.868;10.728;2023-04-01T11:24:58;7.17;;;4.03;;
70367;SDS011;57789;53.868;10.728;2023-04-01T11:28:16;10.60;;;4.13;;
70367;SDS011;57789;53.868;10.728;2023-04-01T11:30:53;9.80;;;3.80;;
70367;SDS011;57789;53.868;10.728;2023-04-01T11:33:46;11.23;;;4.10;;
70367;SDS011;57789;53.868;10.728;2023-04-01T11:39:33;6.00;;;3.40;;
70367;SDS011;57789;53.868;10.728;2023-04-01T11:53:28;6.30;;;3.97;;
70367;SDS011;57789;53.868;10.728;2023-04-01T12:12:36;7.43;;;3.10;;
70367;SDS011;57789;53.868;10.728;2023-04-01T12:26:23;14.23;;;4.83;;
70367;SDS011;57789;53.868;10.728;2023-04-01T12:37:21;7.30;;;4.43;;
70367;SDS011;57789;53.868;10.728;2023-04-01T12:46:09;8.70;;;3.70;;
70367;SDS011;57789;53.868;10.728;2023-04-01T12:52:11;7.27;;;4.53;;
70367;SDS011;57789;53.868;10.728;2023-04-01T12:55:18;8.70;;;3.70;;
70367;SDS011;57789;53.868;10.728;2023-04-01T12:58:03;11.43;;;4.50;;
70367;SDS011;57789;53.868;10.728;2023-04-01T13:00:46;12.93;;;4.53;;
70367;SDS011;57789;53.868;10.728;2023-04-01T13:11:51;5.90;;;3.20;;
70367;SDS011;57789;53.868;10.728;2023-04-01T13:17:51;14.07;;;4.97;;
70367;SDS011;57789;53.868;10.728;2023-04-01T13:31:38;9.33;;;3.97;;
70367;SDS011;57789;53.868;10.728;2023-04-01T13:34:37;16.00;;;4.00;;
70367;SDS011;57789;53.868;10.728;2023-04-01T13:54:19;9.90;;;4.57;;
70367;SDS011;57789;53.868;10.728;2023-04-01T13:59:43;13.13;;;4.30;;
70367;SDS011;57789;53.868;10.728;2023-04-01T14:13:47;17.63;;;7.97;;
70367;SDS011;57789;53.868;10.728;2023-04-01T14:33:09;14.13;;;4.60;;
70367;SDS011;57789;53.868;10.728;2023-04-01T14:38:46;9.17;;;4.57;;
70367;SDS011;57789;53.868;10.728;2023-04-01T14:42:09;10.97;;;4.67;;
70367;SDS011;57789;53.868;10.728;2023-04-01T14:50:20;16.50;;;5.20;;
70367;SDS011;57789;53.868;10.728;2023-04-01T14:52:57;10.30;;;5.73;;
70367;SDS011;57789;53.868;10.728;2023-04-01T14:58:11;12.67;;;5.10;;
70367;SDS011;57789;53.868;10.728;2023-04-01T15:00:55;14.47;;;5.67;;
70367;SDS011;57789;53.868;10.728;2023-04-01T15:06:39;14.73;;;6.57;;
70367;SDS011;57789;53.868;10.728;2023-04-01T15:09:29;13.77;;;5.33;;
70367;SDS011;57789;53.868;10.728;2023-04-01T15:15:00;11.07;;;5.13;;
70367;SDS011;57789;53.868;10.728;2023-04-01T15:17:31;10.00;;;4.60;;
70367;SDS011;57789;53.868;10.728;2023-04-01T15:30:53;9.93;;;4.40;;
70367;SDS011;57789;53.868;10.728;2023-04-01T15:38:52;7.00;;;3.97;;
70367;SDS011;57789;53.868;10.728;2023-04-01T15:41:56;9.83;;;3.77;;
70367;SDS011;57789;53.868;10.728;2023-04-01T15:57:59;14.23;;;3.90;;
70367;SDS011;57789;53.868;10.728;2023-04-01T16:14:14;10.03;;;3.80;;
70367;SDS011;57789;53.868;10.728;2023-04-01T16:19:24;9.83;;;2.40;;
70367;SDS011;57789;53.868;10.728;2023-04-01T16:22:08;13.70;;;3.33;;
70367;SDS011;57789;53.868;10.728;2023-04-01T16:27:58;5.97;;;2.60;;
70367;SDS011;57789;53.868;10.728;2023-04-01T16:31:06;5.47;;;3.27;;
70367;SDS011;57789;53.868;10.728;2023-04-01T16:33:52;7.10;;;2.93;;
70367;SDS011;57789;53.868;10.728;2023-04-01T16:36:42;6.33;;;2.30;;
70367;SDS011;57789;53.868;10.728;2023-04-01T16:42:25;7.03;;;2.27;;
70367;SDS011;57789;53.868;10.728;2023-04-01T16:48:12;8.67;;;2.80;;
70367;SDS011;57789;53.868;10.728;2023-04-01T16:50:49;6.17;;;2.40;;
70367;SDS011;57789;53.868;10.728;2023-04-01T16:53:26;4.80;;;2.30;;
70367;SDS011;57789;53.868;10.728;2023-04-01T17:03:49;3.27;;;2.30;;
70367;SDS011;57789;53.868;10.728;2023-04-01T17:19:36;4.53;;;2.77;;
70367;SDS011;57789;53.868;10.728;2023-04-01T17:22:25;10.40;;;3.53;;
70367;SDS011;57789;53.868;10.728;2023-04-01T17:41:57;4.70;;;2.30;;
70367;SDS011;57789;53.868;10.728;2023-04-01T17:44:58;6.80;;;2.70;;
70367;SDS011;57789;53.868;10.728;2023-04-01T17:47:44;10.90;;;2.40;;
70367;SDS011;57789;53.868;10.728;2023-04-01T17:53:26;8.33;;;2.23;;
70367;SDS011;57789;53.868;10.728;2023-04-01T18:01:40;5.93;;;1.90;;
70367;SDS011;57789;53.868;10.728;2023-04-01T18:15:06;10.90;;;3.97;;
70367;SDS011;57789;53.868;10.728;2023-04-01T18:26:07;3.97;;;3.07;;
70367;SDS011;57789;53.868;10.728;2023-04-01T18:28:45;8.43;;;1.83;;
70367;SDS011;57789;53.868;10.728;2023-04-01T18:31:21;6.63;;;2.20;;
70367;SDS011;57789;53.868;10.728;2023-04-01T18:42:05;4.57;;;2.10;;
70367;SDS011;57789;53.868;10.728;2023-04-01T18:44:52;10.13;;;1.90;;
70367;SDS011;57789;53.868;10.728;2023-04-01T18:50:27;7.50;;;2.30;;
70367;SDS011;57789;53.868;10.728;2023-04-01T18:56:05;11.07;;;2.90;;
70367;SDS011;57789;53.868;10.728;2023-04-01T19:01:36;5.00;;;2.83;;
70367;SDS011;57789;53.868;10.728;2023-04-01T19:04:08;9.50;;;2.30;;
70367;SDS011;57789;53.868;10.728;2023-04-01T19:06:41;6.33;;;2.87;;
70367;SDS011;57789;53.868;10.728;2023-04-01T19:11:48;9.50;;;2.17;;
70367;SDS011;57789;53.868;10.728;2023-04-01T19:17:45;6.17;;;2.23;;
70367;SDS011;57789;53.868;10.728;2023-04-01T19:26:01;7.47;;;2.60;;
70367;SDS011;57789;53.868;10.728;2023-04-01T19:29:06;8.87;;;2.33;;
70367;SDS011;57789;53.868;10.728;2023-04-01T20:04:43;3.20;;;1.83;;
70367;SDS011;57789;53.868;10.728;2023-04-01T20:07:16;7.80;;;2.20;;
70367;SDS011;57789;53.868;10.728;2023-04-01T20:12:47;9.23;;;2.43;;
70367;SDS011;57789;53.868;10.728;2023-04-01T20:15:35;4.57;;;1.97;;
70367;SDS011;57789;53.868;10.728;2023-04-01T20:18:25;6.43;;;1.80;;
70367;SDS011;57789;53.868;10.728;2023-04-01T20:21:03;5.13;;;1.90;;
70367;SDS011;57789;53.868;10.728;2023-04-01T20:23:43;7.33;;;2.00;;
70367;SDS011;57789;53.868;10.728;2023-04-01T20:26:23;2.80;;;1.67;;
70367;SDS011;57789;53.868;10.728;2023-04-01T20:32:10;8.57;;;2.27;;
70367;SDS011;57789;53.868;10.728;2023-04-01T20:45:32;3.20;;;1.63;;
70367;SDS011;57789;53.868;10.728;2023-04-01T20:51:12;6.20;;;1.47;;
70367;SDS011;57789;53.868;10.728;2023-04-01T20:53:50;4.00;;;1.07;;
70367;SDS011;57789;53.868;10.728;2023-04-01T21:08:00;3.20;;;1.20;;
70367;SDS011;57789;53.868;10.728;2023-04-01T21:10:41;3.23;;;1.50;;
70367;SDS011;57789;53.868;10.728;2023-04-01T21:29:18;7.93;;;1.90;;
70367;SDS011;57789;53.868;10.728;2023-04-01T21:31:58;5.53;;;1.50;;
70367;SDS011;57789;53.868;10.728;2023-04-01T21:37:33;8.60;;;2.50;;
70367;SDS011;57789;53.868;10.728;2023-04-01T21:43:08;2.60;;;1.43;;
70367;SDS011;57789;53.868;10.728;2023-04-01T21:54:13;4.93;;;1.30;;
70367;SDS011;57789;53.868;10.728;2023-04-01T21:59:57;7.60;;;1.20;;
70367;SDS011;57789;53.868;10.728;2023-04-01T22:07:46;3.37;;;1.10;;
70367;SDS011;57789;53.868;10.728;2023-04-01T22:13:04;7.63;;;1.20;;
70367;SDS011;57789;53.868;10.728;2023-04-01T22:18:31;2.17;;;1.00;;
70367;SDS011;57789;53.868;10.728;2023-04-01T22:32:52;19.17;;;6.00;;
70367;SDS011;57789;53.868;10.728;2023-04-01T22:44:00;3.23;;;0.97;;
70367;SDS011;57789;53.868;10.728;2023-04-01T22:46:38;10.23;;;1.50;;
70367;SDS011;57789;53.868;10.728;2023-04-01T22:49:12;9.17;;;1.77;;
70367;SDS011;57789;53.868;10.728;2023-04-01T22:51:57;5.63;;;1.30;;
70367;SDS011;57789;53.868;10.728;2023-04-01T22:57:05;5.53;;;1.40;;
70367;SDS011;57789;53.868;10.728;2023-04-01T23:02:24;6.40;;;1.23;;
70367;SDS011;57789;53.868;10.728;2023-04-01T23:05:12;2.93;;;0.90;;
70367;SDS011;57789;53.868;10.728;2023-04-01T23:10:23;4.23;;;1.23;;
70367;SDS011;57789;53.868;10.728;2023-04-01T23:12:54;2.13;;;1.17;;
70367;SDS011;57789;53.868;10.728;2023-04-01T23:15:23;6.13;;;1.53;;
70367;SDS011;57789;53.868;10.728;2023-04-01T23:23:39;3.73;;;1.17;;
70367;SDS011;57789;53.868;10.728;2023-04-01T23:26:32;3.90;;;1.30;;
70367;SDS011;57789;53.868;10.728;2023-04-01T23:29:16;1.80;;;0.90;;
70367;SDS011;57789;53.868;10.728;2023-04-01T23:31:47;4.73;;;1.40;;
70367;SDS011;57789;53.868;10.728;2023-04-01T23:34:22;7.43;;;1.13;;
70367;SDS011;57789;53.868;10.728;2023-04-01T23:36:57;6.90;;;1.37;;
70367;SDS011;57789;53.868;10.728;2023-04-01T23:39:41;3.47;;;1.30;;
70367;SDS011;57789;53.868;10.728;2023-04-01T23:44:50;4.80;;;1.00;;
70367;SDS011;57789;53.868;10.728;2023-04-01T23:47:20;7.40;;;1.97;;
70367;SDS011;57789;53.868;10.728;2023-04-01T23:49:55;8.63;;;2.47;;
70367;SDS011;57789;53.868;10.728;2023-04-01T23:52:27;9.33;;;3.03;;
70367;SDS011;57789;53.868;10.728;2023-04-01T23:55:17;4.43;;;1.73;;
